createdAt,value
2019-03-25T00:01:24.107Z,4.50
2019-03-25T00:04:03.407Z,4.70
2019-03-25T00:06:43.229Z,4.40
2019-03-25T00:09:23.323Z,4.60
2019-03-25T00:12:03.311Z,4.50
2019-03-25T00:14:42.482Z,4.30
2019-03-25T00:17:22.542Z,4.40
2019-03-25T00:20:02.588Z,4.50
2019-03-25T00:22:42.551Z,4.50
2019-03-25T00:25:19.833Z,4.10
2019-03-25T00:27:59.949Z,4.40
2019-03-25T00:30:39.873Z,4.20
2019-03-25T00:33:17.276Z,3.90
2019-03-25T00:36:23.330Z,4.20
2019-03-25T00:39:03.357Z,4.20
2019-03-25T00:41:43.275Z,4.00
2019-03-25T00:44:23.320Z,4.30
2019-03-25T00:47:03.361Z,4.00
2019-03-25T00:49:43.297Z,3.90
2019-03-25T00:52:23.273Z,3.80
2019-03-25T00:55:03.303Z,4.10
2019-03-25T00:57:40.597Z,4.10
2019-03-25T01:00:20.359Z,3.90
2019-03-25T01:02:59.451Z,4.00
2019-03-25T01:05:38.581Z,3.90
2019-03-25T01:08:17.809Z,3.90
2019-03-25T01:10:58.203Z,4.00
2019-03-25T01:13:37.909Z,3.90
2019-03-25T01:16:17.669Z,3.90
2019-03-25T01:18:56.865Z,3.80
2019-03-25T01:21:36.914Z,3.80
2019-03-25T01:24:15.977Z,3.80
2019-03-25T01:26:55.096Z,3.70
2019-03-25T01:29:34.291Z,3.80
2019-03-25T01:32:14.122Z,3.90
2019-03-25T01:34:54.112Z,3.90
2019-03-25T01:37:34.224Z,3.40
2019-03-25T01:40:14.067Z,3.70
2019-03-25T01:42:53.283Z,3.60
2019-03-25T01:45:33.335Z,3.80
2019-03-25T01:48:13.425Z,3.60
2019-03-25T01:50:52.461Z,3.50
2019-03-25T01:53:32.497Z,3.60
2019-03-25T01:56:12.374Z,3.10
2019-03-25T01:58:38.794Z,3.30
2019-03-25T02:01:05.373Z,3.50
2019-03-25T02:03:31.617Z,3.40
2019-03-25T02:05:57.957Z,3.40
2019-03-25T02:08:24.396Z,3.30
2019-03-25T02:10:50.757Z,3.20
2019-03-25T02:13:17.117Z,3.30
2019-03-25T02:15:43.353Z,3.40
2019-03-25T02:18:09.795Z,3.40
2019-03-25T02:20:36.141Z,3.40
2019-03-25T02:23:02.766Z,3.30
2019-03-25T02:25:29.345Z,3.30
2019-03-25T02:27:55.784Z,3.40
2019-03-25T02:30:22.133Z,3.30
2019-03-25T02:32:48.478Z,3.20
2019-03-25T02:35:14.956Z,3.20
2019-03-25T02:37:41.497Z,3.40
2019-03-25T02:40:08.017Z,3.20
2019-03-25T02:42:34.266Z,3.10
2019-03-25T02:45:00.549Z,3.10
2019-03-25T02:47:26.861Z,3.30
2019-03-25T02:49:53.220Z,3.10
2019-03-25T02:52:19.585Z,3.10
2019-03-25T02:54:45.917Z,3.10
2019-03-25T02:57:12.386Z,3.00
2019-03-25T02:59:39.604Z,3.10
2019-03-25T03:02:05.947Z,3.00
2019-03-25T03:04:32.189Z,2.90
2019-03-25T03:06:58.534Z,3.10
2019-03-25T03:09:24.889Z,3.10
2019-03-25T03:11:51.178Z,3.20
2019-03-25T03:14:17.539Z,3.00
2019-03-25T03:16:43.887Z,3.00
2019-03-25T03:19:10.356Z,3.00
2019-03-25T03:21:36.596Z,2.40
2019-03-25T03:24:03.057Z,2.90
2019-03-25T03:26:29.277Z,2.90
2019-03-25T03:28:55.714Z,2.90
2019-03-25T03:31:22.055Z,2.80
2019-03-25T03:33:48.530Z,2.70
2019-03-25T03:36:14.986Z,2.80
2019-03-25T03:38:41.222Z,2.80
2019-03-25T03:41:07.607Z,2.80
2019-03-25T03:43:33.838Z,2.70
2019-03-25T03:46:00.083Z,2.30
2019-03-25T03:48:26.433Z,2.80
2019-03-25T03:50:52.978Z,2.80
2019-03-25T03:53:19.208Z,2.60
2019-03-25T03:55:47.708Z,2.50
2019-03-25T03:58:14.220Z,2.50
2019-03-25T04:00:40.482Z,2.60
2019-03-25T04:03:06.955Z,2.50
2019-03-25T04:05:33.304Z,2.40
2019-03-25T04:07:59.846Z,2.70
2019-03-25T04:10:26.307Z,2.40
2019-03-25T04:12:52.741Z,2.50
2019-03-25T04:15:24.741Z,2.40
2019-03-25T04:17:50.991Z,2.50
2019-03-25T04:20:17.336Z,2.20
2019-03-25T04:22:43.581Z,2.50
2019-03-25T04:25:10.050Z,2.30
2019-03-25T04:27:36.406Z,2.30
2019-03-25T04:30:03.449Z,1.80
2019-03-25T04:32:29.707Z,2.30
2019-03-25T04:34:56.141Z,2.30
2019-03-25T04:37:22.390Z,1.90
2019-03-25T04:39:48.861Z,2.30
2019-03-25T04:42:15.185Z,2.40
2019-03-25T04:44:41.528Z,2.40
2019-03-25T04:47:08.008Z,2.20
2019-03-25T04:49:34.362Z,2.20
2019-03-25T04:52:00.705Z,2.50
2019-03-25T04:54:27.144Z,2.40
2019-03-25T04:56:53.481Z,2.30
2019-03-25T04:59:19.827Z,2.20
2019-03-25T05:01:46.964Z,2.20
2019-03-25T05:04:13.310Z,2.30
2019-03-25T05:06:39.783Z,2.40
2019-03-25T05:09:06.157Z,2.30
2019-03-25T05:11:32.508Z,2.50
2019-03-25T05:13:58.748Z,2.40
2019-03-25T05:16:29.605Z,2.60
2019-03-25T05:18:55.853Z,2.60
2019-03-25T05:21:25.023Z,2.80
2019-03-25T05:23:51.375Z,2.60
2019-03-25T05:26:17.717Z,2.80
2019-03-25T05:28:44.056Z,3.10
2019-03-25T05:31:10.429Z,3.20
2019-03-25T05:33:36.676Z,3.40
2019-03-25T05:36:03.223Z,3.50
2019-03-25T05:38:32.161Z,3.50
2019-03-25T05:40:58.697Z,3.70
2019-03-25T05:43:25.020Z,4.10
2019-03-25T05:45:54.385Z,5.70
2019-03-25T05:48:20.628Z,6.70
2019-03-25T05:50:46.869Z,7.40
2019-03-25T05:53:13.361Z,8.40
2019-03-25T05:55:40.934Z,9.30
2019-03-25T05:58:07.536Z,9.80
2019-03-25T06:00:35.698Z,10.20
2019-03-25T06:03:02.158Z,10.60
2019-03-25T06:05:28.616Z,10.90
2019-03-25T06:07:54.957Z,11.30
2019-03-25T06:10:21.399Z,10.80
2019-03-25T06:12:47.741Z,10.70
2019-03-25T06:15:14.457Z,9.20
2019-03-25T06:17:40.905Z,9.60
2019-03-25T06:20:07.463Z,9.80
2019-03-25T06:22:33.899Z,10.40
2019-03-25T06:25:00.343Z,9.80
2019-03-25T06:27:26.678Z,10.10
2019-03-25T06:29:52.931Z,10.30
2019-03-25T06:32:19.269Z,10.10
2019-03-25T06:34:45.613Z,10.80
2019-03-25T06:37:11.985Z,10.10
2019-03-25T06:39:38.220Z,9.70
2019-03-25T06:42:04.801Z,9.90
2019-03-25T06:44:31.262Z,10.20
2019-03-25T06:46:57.497Z,10.20
2019-03-25T06:49:23.737Z,10.70
2019-03-25T06:51:50.091Z,7.90
2019-03-25T06:54:16.425Z,7.60
2019-03-25T06:56:42.666Z,7.20
2019-03-25T06:59:09.056Z,6.30
2019-03-25T07:01:35.489Z,5.90
2019-03-25T07:04:01.656Z,5.40
2019-03-25T07:06:28.237Z,5.20
2019-03-25T07:08:54.467Z,5.00
2019-03-25T07:11:20.898Z,4.30
2019-03-25T07:13:47.248Z,4.60
2019-03-25T07:16:15.030Z,4.50
2019-03-25T07:18:41.240Z,4.70
2019-03-25T07:21:07.513Z,4.70
2019-03-25T07:23:33.853Z,4.70
2019-03-25T07:26:00.189Z,4.30
2019-03-25T07:28:26.540Z,4.10
2019-03-25T07:30:52.881Z,4.10
2019-03-25T07:33:19.216Z,4.00
2019-03-25T07:35:45.548Z,3.90
2019-03-25T07:38:11.897Z,4.10
2019-03-25T07:40:38.228Z,4.20
2019-03-25T07:43:04.812Z,4.10
2019-03-25T07:45:31.228Z,4.20
2019-03-25T07:47:57.665Z,3.80
2019-03-25T07:50:24.214Z,3.80
2019-03-25T07:52:50.563Z,3.90
2019-03-25T07:55:17.038Z,3.90
2019-03-25T07:57:48.151Z,4.10
2019-03-25T08:00:14.730Z,4.00
2019-03-25T08:02:41.152Z,4.30
2019-03-25T08:05:08.513Z,4.00
2019-03-25T08:07:34.931Z,4.00
2019-03-25T08:10:01.408Z,3.80
2019-03-25T08:12:27.749Z,4.10
2019-03-25T08:14:54.013Z,4.10
2019-03-25T08:17:20.316Z,4.00
2019-03-25T08:19:46.668Z,4.00
2019-03-25T08:22:13.101Z,4.30
2019-03-25T08:24:39.336Z,4.40
2019-03-25T08:27:05.695Z,4.50
2019-03-25T08:29:31.976Z,4.70
2019-03-25T08:31:59.058Z,4.80
2019-03-25T08:34:25.399Z,4.70
2019-03-25T08:36:51.844Z,4.60
2019-03-25T08:39:18.089Z,4.10
2019-03-25T08:41:44.425Z,4.50
2019-03-25T08:44:10.957Z,4.00
2019-03-25T08:46:37.293Z,3.80
2019-03-25T08:49:03.736Z,4.00
2019-03-25T08:51:30.077Z,3.60
2019-03-25T08:53:56.523Z,3.70
2019-03-25T08:56:22.898Z,3.90
2019-03-25T08:58:49.232Z,3.70
2019-03-25T09:01:15.639Z,3.50
2019-03-25T09:03:41.827Z,3.50
2019-03-25T09:06:08.313Z,3.60
2019-03-25T09:08:34.765Z,3.70
2019-03-25T09:11:01.217Z,3.80
2019-03-25T09:13:27.554Z,4.00
2019-03-25T09:15:53.901Z,3.70
2019-03-25T09:18:20.273Z,3.80
2019-03-25T09:20:46.629Z,3.80
2019-03-25T09:23:13.105Z,4.00
2019-03-25T09:25:39.505Z,4.20
2019-03-25T09:28:05.856Z,4.50
2019-03-25T09:30:53.792Z,4.50
2019-03-25T09:33:20.456Z,4.30
2019-03-25T09:35:46.900Z,4.30
2019-03-25T09:38:13.349Z,4.50
2019-03-25T09:40:39.794Z,4.40
2019-03-25T09:43:06.265Z,4.50
2019-03-25T09:45:32.697Z,4.60
2019-03-25T09:47:59.137Z,4.40
2019-03-25T09:50:25.472Z,4.50
2019-03-25T09:52:51.922Z,4.40
2019-03-25T09:55:18.261Z,4.60
2019-03-25T09:57:44.604Z,4.60
2019-03-25T10:00:11.487Z,5.00
2019-03-25T10:02:37.936Z,4.70
2019-03-25T10:05:04.573Z,4.60
2019-03-25T10:07:30.992Z,5.00
2019-03-25T10:09:57.329Z,4.90
2019-03-25T10:12:23.761Z,5.00
2019-03-25T10:14:49.913Z,5.00
2019-03-25T10:17:16.372Z,5.00
2019-03-25T10:19:42.717Z,5.30
2019-03-25T10:22:08.889Z,5.70
2019-03-25T10:24:35.254Z,6.00
2019-03-25T10:27:01.794Z,6.50
2019-03-25T10:29:28.037Z,6.90
2019-03-25T10:31:54.485Z,7.10
2019-03-25T10:34:20.727Z,7.30
2019-03-25T10:36:47.180Z,7.50
2019-03-25T10:39:13.668Z,7.30
2019-03-25T10:41:39.998Z,7.00
2019-03-25T10:44:06.564Z,7.60
2019-03-25T10:46:33.011Z,7.90
2019-03-25T10:48:59.356Z,8.10
2019-03-25T10:51:25.721Z,8.20
2019-03-25T10:53:52.162Z,8.40
2019-03-25T10:56:18.601Z,8.20
2019-03-25T10:58:45.048Z,7.60
2019-03-25T11:01:11.784Z,7.30
2019-03-25T11:03:38.038Z,7.30
2019-03-25T11:06:04.514Z,7.20
2019-03-25T11:08:31.014Z,7.30
2019-03-25T11:10:57.459Z,7.40
2019-03-25T11:13:23.800Z,7.70
2019-03-25T11:15:50.237Z,8.20
2019-03-25T11:18:16.825Z,8.60
2019-03-25T11:20:43.229Z,8.60
2019-03-25T11:23:09.564Z,9.10
2019-03-25T11:25:36.013Z,8.90
2019-03-25T11:28:02.494Z,8.90
2019-03-25T11:30:49.057Z,9.30
2019-03-25T11:33:15.400Z,9.20
2019-03-25T11:35:41.744Z,8.40
2019-03-25T11:38:08.199Z,8.70
2019-03-25T11:40:36.446Z,9.10
2019-03-25T11:43:03.480Z,9.00
2019-03-25T11:45:29.823Z,8.80
2019-03-25T11:47:56.208Z,8.30
2019-03-25T11:50:22.638Z,8.30
2019-03-25T11:52:49.085Z,8.40
2019-03-25T11:55:17.713Z,8.40
2019-03-25T11:57:43.564Z,8.30
2019-03-25T12:00:10.328Z,8.50
2019-03-25T12:02:36.819Z,8.60
2019-03-25T12:05:05.191Z,8.60
2019-03-25T12:07:31.448Z,8.30
2019-03-25T12:09:58.413Z,8.20
2019-03-25T12:12:24.668Z,8.40
2019-03-25T12:14:51.114Z,8.20
2019-03-25T12:17:17.484Z,8.50
2019-03-25T12:19:43.921Z,8.70
2019-03-25T12:22:10.268Z,8.80
2019-03-25T12:24:36.544Z,8.80
2019-03-25T12:27:02.893Z,8.70
2019-03-25T12:29:30.439Z,8.50
2019-03-25T12:31:56.989Z,8.20
2019-03-25T12:34:23.440Z,8.50
2019-03-25T12:36:49.975Z,8.70
2019-03-25T12:39:16.546Z,8.90
2019-03-25T12:41:42.984Z,8.90
2019-03-25T12:44:09.336Z,9.00
2019-03-25T12:46:35.785Z,8.30
2019-03-25T12:49:02.130Z,8.00
2019-03-25T12:51:28.381Z,8.20
2019-03-25T12:53:54.852Z,8.30
2019-03-25T12:56:21.079Z,8.40
2019-03-25T12:58:47.425Z,8.40
2019-03-25T13:01:13.937Z,8.40
2019-03-25T13:03:40.813Z,8.50
2019-03-25T13:06:07.218Z,8.60
2019-03-25T13:08:33.706Z,8.40
2019-03-25T13:11:00.065Z,8.50
2019-03-25T13:13:26.300Z,8.40
2019-03-25T13:15:52.668Z,8.30
2019-03-25T13:18:18.905Z,7.90
2019-03-25T13:20:45.348Z,7.80
2019-03-25T13:23:11.720Z,8.10
2019-03-25T13:25:39.529Z,8.00
2019-03-25T13:28:06.108Z,8.10
2019-03-25T13:30:32.788Z,8.20
2019-03-25T13:32:59.227Z,8.20
2019-03-25T13:35:25.561Z,8.10
2019-03-25T13:37:52.006Z,8.20
2019-03-25T13:40:18.359Z,8.10
2019-03-25T13:42:44.605Z,8.20
2019-03-25T13:45:11.079Z,8.20
2019-03-25T13:47:37.324Z,8.30
2019-03-25T13:50:05.573Z,8.10
2019-03-25T13:52:31.818Z,8.00
2019-03-25T13:54:58.343Z,7.70
2019-03-25T13:57:24.666Z,7.60
2019-03-25T13:59:50.923Z,7.80
2019-03-25T14:02:17.361Z,8.00
2019-03-25T14:04:43.698Z,8.20
2019-03-25T14:07:13.044Z,7.80
2019-03-25T14:09:39.649Z,8.40
2019-03-25T14:12:06.045Z,7.90
2019-03-25T14:14:32.616Z,8.20
2019-03-25T14:16:59.313Z,8.10
2019-03-25T14:19:25.509Z,8.10
2019-03-25T14:21:51.732Z,8.20
2019-03-25T14:24:18.190Z,8.20
2019-03-25T14:26:44.669Z,8.10
2019-03-25T14:29:11.205Z,7.80
2019-03-25T14:31:37.752Z,7.90
2019-03-25T14:34:04.309Z,7.90
2019-03-25T14:36:30.637Z,7.80
2019-03-25T14:38:57.007Z,7.80
2019-03-25T14:41:23.445Z,7.90
2019-03-25T14:43:50.009Z,8.10
2019-03-25T14:46:16.241Z,7.90
2019-03-25T14:48:42.697Z,7.70
2019-03-25T14:51:09.237Z,7.90
2019-03-25T14:53:44.832Z,7.90
2019-03-25T14:56:03.786Z,7.70
2019-03-25T14:58:30.330Z,7.80
2019-03-25T15:00:56.784Z,7.70
2019-03-25T15:03:23.256Z,7.70
2019-03-25T15:05:49.713Z,7.70
2019-03-25T15:08:16.150Z,7.80
2019-03-25T15:10:53.017Z,8.00
2019-03-25T15:13:11.925Z,7.90
2019-03-25T15:15:38.249Z,8.00
2019-03-25T15:18:15.231Z,7.80
2019-03-25T15:20:33.880Z,7.70
2019-03-25T15:23:00.112Z,7.70
2019-03-25T15:25:26.360Z,7.60
2019-03-25T15:27:52.805Z,7.70
2019-03-25T15:30:19.248Z,7.50
2019-03-25T15:32:45.511Z,7.50
2019-03-25T15:35:12.060Z,7.60
2019-03-25T15:37:38.401Z,7.60
2019-03-25T15:40:08.913Z,7.70
2019-03-25T15:42:35.451Z,7.80
2019-03-25T15:45:03.102Z,7.70
2019-03-25T15:47:29.422Z,7.70
2019-03-25T15:49:55.696Z,7.50
2019-03-25T15:52:22.055Z,7.40
2019-03-25T15:54:48.279Z,7.50
2019-03-25T15:57:14.729Z,7.30
2019-03-25T15:59:41.061Z,7.30
2019-03-25T16:02:07.510Z,7.30
2019-03-25T16:04:33.876Z,7.60
2019-03-25T16:07:00.109Z,7.30
2019-03-25T16:09:26.357Z,7.60
2019-03-25T16:11:52.802Z,7.40
2019-03-25T16:14:19.028Z,7.30
2019-03-25T16:16:45.287Z,7.30
2019-03-25T16:19:11.927Z,7.30
2019-03-25T16:21:38.253Z,7.20
2019-03-25T16:24:04.697Z,7.30
2019-03-25T16:26:31.167Z,7.30
2019-03-25T16:28:57.509Z,7.30
2019-03-25T16:31:23.914Z,7.40
2019-03-25T16:33:50.324Z,7.40
2019-03-25T16:36:16.860Z,7.30
2019-03-25T16:38:43.200Z,7.30
2019-03-25T16:41:09.855Z,7.20
2019-03-25T16:43:36.285Z,7.20
2019-03-25T16:46:02.748Z,7.10
2019-03-25T16:48:29.296Z,7.20
2019-03-25T16:50:55.524Z,7.10
2019-03-25T16:53:21.772Z,7.20
2019-03-25T16:55:48.280Z,7.20
2019-03-25T16:58:14.515Z,7.00
2019-03-25T17:00:40.861Z,6.90
2019-03-25T17:03:07.455Z,6.90
2019-03-25T17:05:33.846Z,6.80
2019-03-25T17:08:00.351Z,6.80
2019-03-25T17:10:26.871Z,6.80
2019-03-25T17:12:53.423Z,6.70
2019-03-25T17:15:19.877Z,6.60
2019-03-25T17:17:46.360Z,6.60
2019-03-25T17:20:13.046Z,6.50
2019-03-25T17:22:39.473Z,6.50
2019-03-25T17:25:06.745Z,6.50
2019-03-25T17:27:33.173Z,6.40
2019-03-25T17:29:59.529Z,6.50
2019-03-25T17:32:26.123Z,6.10
2019-03-25T17:34:52.673Z,6.30
2019-03-25T17:37:19.251Z,6.20
2019-03-25T17:39:45.873Z,6.10
2019-03-25T17:42:12.349Z,6.00
2019-03-25T17:44:38.693Z,5.80
2019-03-25T17:47:05.303Z,5.70
2019-03-25T17:49:31.646Z,5.80
2019-03-25T17:51:58.088Z,6.00
2019-03-25T17:54:24.698Z,5.80
2019-03-25T17:56:51.121Z,5.80
2019-03-25T17:59:17.358Z,5.70
2019-03-25T18:01:43.813Z,6.00
2019-03-25T18:04:10.272Z,5.70
2019-03-25T18:06:36.629Z,5.90
2019-03-25T18:09:05.683Z,5.60
2019-03-25T18:11:32.029Z,5.80
2019-03-25T18:13:58.485Z,5.60
2019-03-25T18:16:25.107Z,5.50
2019-03-25T18:18:51.433Z,5.50
2019-03-25T18:21:19.040Z,5.50
2019-03-25T18:23:45.650Z,5.50
2019-03-25T18:26:12.076Z,5.50
2019-03-25T18:28:38.472Z,5.40
2019-03-25T18:31:05.153Z,5.40
2019-03-25T18:33:31.572Z,5.30
2019-03-25T18:35:57.817Z,5.40
2019-03-25T18:38:24.274Z,5.30
2019-03-25T18:40:50.675Z,5.20
2019-03-25T18:43:17.163Z,5.10
2019-03-25T18:45:43.595Z,5.10
2019-03-25T18:48:10.042Z,5.20
2019-03-25T18:50:36.508Z,5.20
2019-03-25T18:53:03.205Z,5.10
2019-03-25T18:55:29.753Z,5.10
2019-03-25T18:57:56.176Z,5.10
2019-03-25T19:00:31.445Z,5.10
2019-03-25T19:02:58.299Z,5.10
2019-03-25T19:05:24.648Z,5.00
2019-03-25T19:07:51.126Z,5.00
2019-03-25T19:10:21.197Z,5.00
2019-03-25T19:12:47.478Z,5.00
2019-03-25T19:15:13.770Z,5.10
2019-03-25T19:17:40.248Z,5.00
2019-03-25T19:20:06.710Z,4.90
2019-03-25T19:22:33.255Z,5.00
2019-03-25T19:24:59.593Z,4.90
2019-03-25T19:27:25.844Z,4.90
2019-03-25T19:29:52.344Z,4.90
2019-03-25T19:32:18.782Z,4.80
2019-03-25T19:34:45.049Z,4.80
2019-03-25T19:37:11.312Z,4.80
2019-03-25T19:39:37.568Z,4.30
2019-03-25T19:42:04.037Z,4.70
2019-03-25T19:44:30.354Z,4.60
2019-03-25T19:46:56.803Z,4.20
2019-03-25T19:49:23.164Z,4.60
2019-03-25T19:51:49.507Z,4.50
2019-03-25T19:54:15.855Z,4.50
2019-03-25T19:56:42.531Z,4.50
2019-03-25T19:59:08.972Z,4.50
2019-03-25T20:01:35.197Z,4.50
2019-03-25T20:04:01.442Z,4.50
2019-03-25T20:06:27.785Z,4.40
2019-03-25T20:08:54.272Z,4.60
2019-03-25T20:11:20.598Z,4.30
2019-03-25T20:13:46.920Z,4.40
2019-03-25T20:16:13.155Z,4.40
2019-03-25T20:18:39.556Z,4.40
2019-03-25T20:21:06.026Z,4.30
2019-03-25T20:23:32.301Z,4.20
2019-03-25T20:25:58.633Z,4.10
2019-03-25T20:28:25.080Z,4.00
2019-03-25T20:30:51.524Z,4.00
2019-03-25T20:33:17.980Z,4.10
2019-03-25T20:35:44.418Z,4.00
2019-03-25T20:38:10.889Z,3.90
2019-03-25T20:40:37.292Z,3.90
2019-03-25T20:43:03.773Z,3.90
2019-03-25T20:45:30.238Z,3.80
2019-03-25T20:47:56.627Z,3.70
2019-03-25T20:50:23.082Z,3.70
2019-03-25T20:52:49.527Z,3.70
2019-03-25T20:55:16.070Z,3.60
2019-03-25T20:57:42.618Z,3.60
2019-03-25T21:00:10.229Z,3.60
2019-03-25T21:02:44.880Z,3.60
2019-03-25T21:05:04.863Z,3.60
2019-03-25T21:07:31.284Z,3.60
2019-03-25T21:09:57.624Z,3.50
2019-03-25T21:12:24.047Z,3.60
2019-03-25T21:14:50.296Z,3.60
2019-03-25T21:20:00.594Z,3.70
2019-03-25T21:22:40.622Z,3.90
2019-03-25T21:25:20.804Z,3.70
2019-03-25T21:28:00.577Z,3.80
2019-03-25T21:30:47.720Z,3.80
2019-03-25T21:33:26.697Z,4.10
2019-03-25T21:36:06.323Z,4.00
2019-03-25T21:38:46.247Z,3.80
2019-03-25T21:41:26.381Z,3.80
2019-03-25T21:44:06.384Z,4.00
2019-03-25T21:46:45.526Z,4.00
2019-03-25T21:49:24.850Z,3.90
2019-03-25T21:52:04.959Z,4.00
2019-03-25T21:54:44.833Z,4.00
2019-03-25T21:57:24.896Z,4.00
2019-03-25T22:00:04.801Z,4.00
2019-03-25T22:02:42.366Z,3.80
2019-03-25T22:05:28.469Z,3.90
2019-03-25T22:08:07.709Z,3.80
2019-03-25T22:10:47.619Z,3.70
2019-03-25T22:13:27.678Z,3.80
2019-03-25T22:16:06.838Z,3.60
2019-03-25T22:18:44.325Z,3.70
2019-03-25T22:21:30.717Z,3.60
2019-03-25T22:24:08.045Z,3.60
2019-03-25T22:26:54.237Z,3.70
2019-03-25T22:29:34.122Z,3.70
2019-03-25T22:32:14.033Z,3.70
2019-03-25T22:34:53.513Z,3.70
2019-03-25T22:37:33.076Z,3.90
2019-03-25T22:40:13.268Z,3.70
2019-03-25T22:42:50.501Z,3.60
2019-03-25T22:45:30.819Z,3.80
2019-03-25T22:48:10.753Z,4.00
2019-03-25T22:50:50.397Z,4.00
2019-03-25T22:53:30.113Z,4.10
2019-03-25T22:56:09.401Z,4.20
2019-03-25T22:58:49.176Z,4.10
2019-03-25T23:01:26.665Z,4.10
2019-03-25T23:04:12.853Z,4.10
2019-03-25T23:06:52.282Z,4.20
2019-03-25T23:09:32.021Z,4.20
2019-03-25T23:12:12.153Z,4.00
2019-03-25T23:14:51.294Z,4.20
2019-03-25T23:17:31.325Z,4.30
2019-03-25T23:20:10.537Z,4.10
2019-03-25T23:22:50.693Z,4.20
2019-03-25T23:28:42.685Z,3.90
2019-03-25T23:31:22.359Z,4.00
2019-03-25T23:34:02.379Z,3.90
2019-03-25T23:36:43.189Z,4.00
2019-03-25T23:39:25.182Z,4.00
2019-03-25T23:42:04.975Z,4.00
2019-03-25T23:44:44.335Z,4.00
2019-03-25T23:47:24.129Z,3.80
2019-03-25T23:50:03.882Z,4.00
2019-03-25T23:52:43.933Z,4.00
2019-03-25T23:55:23.349Z,4.10
2019-03-25T23:58:03.122Z,4.10
